createdAt,value
2022-10-18T00:02:26.421Z,4.05
2022-10-18T00:04:53.200Z,3.75
2022-10-18T00:07:19.785Z,3.92
2022-10-18T00:09:46.363Z,3.95
2022-10-18T00:12:12.845Z,4.68
2022-10-18T00:14:39.356Z,4.32
2022-10-18T00:17:06.264Z,4.00
2022-10-18T00:19:32.778Z,4.43
2022-10-18T00:21:59.243Z,4.20
2022-10-18T00:24:25.878Z,5.00
2022-10-18T00:26:52.829Z,4.55
2022-10-18T00:29:19.777Z,4.40
2022-10-18T00:31:46.369Z,4.70
2022-10-18T00:34:15.919Z,4.22
2022-10-18T00:36:43.873Z,4.78
2022-10-18T00:39:16.230Z,4.32
2022-10-18T00:41:42.800Z,4.85
2022-10-18T00:44:12.269Z,4.53
2022-10-18T00:46:46.721Z,4.60
2022-10-18T00:49:22.168Z,5.18
2022-10-18T00:51:56.397Z,5.00
2022-10-18T00:54:23.931Z,6.90
2022-10-18T00:56:50.867Z,5.07
2022-10-18T00:59:18.365Z,5.35
2022-10-18T01:01:45.708Z,4.75
2022-10-18T01:04:16.760Z,4.85
2022-10-18T01:07:09.264Z,5.40
2022-10-18T01:09:40.787Z,5.50
2022-10-18T01:12:24.611Z,5.00
2022-10-18T01:15:06.461Z,5.35
2022-10-18T01:17:44.565Z,5.55
2022-10-18T01:20:35.898Z,7.28
2022-10-18T01:23:12.518Z,6.15
2022-10-18T01:26:14.442Z,4.80
2022-10-18T01:28:49.996Z,4.53
2022-10-18T01:31:58.908Z,5.03
2022-10-18T01:34:31.497Z,4.28
2022-10-18T01:37:00.592Z,5.07
2022-10-18T01:39:31.863Z,4.68
2022-10-18T01:42:01.422Z,4.65
2022-10-18T01:44:32.076Z,4.40
2022-10-18T01:46:59.926Z,4.88
2022-10-18T01:49:27.233Z,4.93
2022-10-18T01:51:54.098Z,4.40
2022-10-18T01:54:33.129Z,4.43
2022-10-18T01:57:09.771Z,4.55
2022-10-18T01:59:56.020Z,4.55
2022-10-18T02:02:32.259Z,4.57
2022-10-18T02:04:59.099Z,5.55
2022-10-18T02:07:28.777Z,4.28
2022-10-18T02:10:07.932Z,3.95
2022-10-18T02:12:36.468Z,4.38
2022-10-18T02:15:06.081Z,4.47
2022-10-18T02:17:32.718Z,4.05
2022-10-18T02:20:01.456Z,4.25
2022-10-18T02:22:32.610Z,4.30
2022-10-18T02:25:03.388Z,3.42
2022-10-18T02:27:30.532Z,3.20
2022-10-18T02:29:57.205Z,3.08
2022-10-18T02:32:38.658Z,2.75
2022-10-18T02:35:08.218Z,3.88
2022-10-18T02:37:38.851Z,3.92
2022-10-18T02:40:08.407Z,2.97
2022-10-18T02:42:37.071Z,2.80
2022-10-18T02:45:05.900Z,3.30
2022-10-18T02:47:32.638Z,2.70
2022-10-18T02:49:59.351Z,3.20
2022-10-18T02:52:25.810Z,3.88
2022-10-18T02:54:52.314Z,3.45
2022-10-18T02:57:18.918Z,3.72
2022-10-18T02:59:45.488Z,3.70
2022-10-18T03:02:12.108Z,3.33
2022-10-18T03:04:38.727Z,3.55
2022-10-18T03:07:05.206Z,3.45
2022-10-18T03:09:31.854Z,3.97
2022-10-18T03:11:58.386Z,4.72
2022-10-18T03:14:24.922Z,4.70
2022-10-18T03:16:51.583Z,4.78
2022-10-18T03:19:18.093Z,4.15
2022-10-18T03:21:44.956Z,4.45
2022-10-18T03:24:11.519Z,4.18
2022-10-18T03:26:37.980Z,4.05
2022-10-18T03:29:04.520Z,3.90
2022-10-18T03:34:02.670Z,4.28
2022-10-18T03:36:29.179Z,3.85
2022-10-18T03:38:55.759Z,4.55
2022-10-18T03:41:22.297Z,4.75
2022-10-18T03:43:48.826Z,4.05
2022-10-18T03:46:15.359Z,3.75
2022-10-18T03:48:41.838Z,4.20
2022-10-18T03:51:08.407Z,4.00
2022-10-18T03:53:34.916Z,3.17
2022-10-18T03:56:01.598Z,3.30
2022-10-18T03:58:28.257Z,3.22
2022-10-18T04:00:55.241Z,2.88
2022-10-18T04:03:22.679Z,3.83
2022-10-18T04:05:50.430Z,3.35
2022-10-18T04:08:18.041Z,2.92
2022-10-18T04:10:44.850Z,3.25
2022-10-18T04:13:11.411Z,2.88
2022-10-18T04:15:37.901Z,2.97
2022-10-18T04:18:04.514Z,3.08
2022-10-18T04:20:30.982Z,3.55
2022-10-18T04:22:58.054Z,3.40
2022-10-18T04:25:25.324Z,3.63
2022-10-18T04:27:52.083Z,3.58
2022-10-18T04:30:18.660Z,4.00
2022-10-18T04:32:45.128Z,3.65
2022-10-18T04:35:12.164Z,4.03
2022-10-18T04:37:39.217Z,4.10
2022-10-18T04:40:06.841Z,3.38
2022-10-18T04:42:33.304Z,3.15
2022-10-18T04:44:59.787Z,3.35
2022-10-18T04:47:26.366Z,2.83
2022-10-18T04:49:52.841Z,3.28
2022-10-18T04:52:19.341Z,2.80
2022-10-18T04:54:45.794Z,3.60
2022-10-18T04:57:12.266Z,3.25
2022-10-18T04:59:38.800Z,2.65
2022-10-18T05:02:05.745Z,2.70
2022-10-18T05:04:32.524Z,2.85
2022-10-18T05:06:59.115Z,2.38
2022-10-18T05:09:25.606Z,2.70
2022-10-18T05:11:52.604Z,2.45
2022-10-18T05:14:19.158Z,2.45
2022-10-18T05:16:45.763Z,2.65
2022-10-18T05:19:12.229Z,2.20
2022-10-18T05:21:38.718Z,2.53
2022-10-18T05:24:05.482Z,2.55
2022-10-18T05:26:31.992Z,2.25
2022-10-18T05:28:58.563Z,2.70
2022-10-18T05:31:25.157Z,2.60
2022-10-18T05:33:51.640Z,2.33
2022-10-18T05:36:18.127Z,2.42
2022-10-18T05:38:45.440Z,2.47
2022-10-18T05:41:12.663Z,2.17
2022-10-18T05:43:40.470Z,2.08
2022-10-18T05:46:12.096Z,2.33
2022-10-18T05:48:41.768Z,1.52
2022-10-18T05:51:08.238Z,1.90
2022-10-18T05:53:37.217Z,2.47
2022-10-18T05:56:05.499Z,2.55
2022-10-18T05:58:32.208Z,2.20
2022-10-18T06:01:00.538Z,2.28
2022-10-18T06:03:33.865Z,2.00
2022-10-18T06:06:07.750Z,1.98
2022-10-18T06:08:35.587Z,1.80
2022-10-18T06:11:17.570Z,2.33
2022-10-18T06:13:46.789Z,1.52
2022-10-18T06:16:15.340Z,1.70
2022-10-18T06:18:42.746Z,2.05
2022-10-18T06:21:10.274Z,2.55
2022-10-18T06:23:36.840Z,1.80
2022-10-18T06:26:08.319Z,1.70
2022-10-18T06:28:36.544Z,1.98
2022-10-18T06:31:04.175Z,1.63
2022-10-18T06:33:31.874Z,1.65
2022-10-18T06:36:03.931Z,1.90
2022-10-18T06:38:31.350Z,2.50
2022-10-18T06:41:00.132Z,1.73
2022-10-18T06:43:27.703Z,2.50
2022-10-18T06:45:54.861Z,1.92
2022-10-18T06:48:22.609Z,1.70
2022-10-18T06:50:52.718Z,2.40
2022-10-18T06:53:19.165Z,1.75
2022-10-18T06:55:46.832Z,1.85
2022-10-18T06:58:13.285Z,2.25
2022-10-18T07:00:40.209Z,1.40
2022-10-18T07:03:06.945Z,1.75
2022-10-18T07:08:05.112Z,1.70
2022-10-18T07:10:31.593Z,1.52
2022-10-18T07:13:13.633Z,1.90
2022-10-18T07:15:44.738Z,3.47
2022-10-18T07:18:11.197Z,2.17
2022-10-18T07:20:37.811Z,2.30
2022-10-18T07:23:07.089Z,2.63
2022-10-18T07:25:33.600Z,2.30
2022-10-18T07:28:00.680Z,2.67
2022-10-18T07:30:27.790Z,2.15
2022-10-18T07:32:54.307Z,2.50
2022-10-18T07:35:20.850Z,2.17
2022-10-18T07:37:47.412Z,2.13
2022-10-18T07:40:14.307Z,2.70
2022-10-18T07:42:41.336Z,2.33
2022-10-18T07:45:08.658Z,3.33
2022-10-18T07:47:35.481Z,2.47
2022-10-18T07:50:02.084Z,2.78
2022-10-18T07:52:28.634Z,2.67
2022-10-18T07:54:55.095Z,2.67
2022-10-18T07:57:21.640Z,2.97
2022-10-18T07:59:48.331Z,2.35
2022-10-18T08:02:14.871Z,2.58
2022-10-18T08:04:41.756Z,2.35
2022-10-18T08:07:08.274Z,2.42
2022-10-18T08:09:34.765Z,2.83
2022-10-18T08:12:01.289Z,2.33
2022-10-18T08:14:27.735Z,2.92
2022-10-18T08:16:55.772Z,2.85
2022-10-18T08:19:22.536Z,2.78
2022-10-18T08:21:48.954Z,3.05
2022-10-18T08:24:15.420Z,3.67
2022-10-18T08:26:41.916Z,2.33
2022-10-18T08:29:22.983Z,2.78
2022-10-18T08:31:51.414Z,2.00
2022-10-18T08:34:19.841Z,1.88
2022-10-18T08:36:46.548Z,1.90
2022-10-18T08:39:13.040Z,1.77
2022-10-18T08:41:52.795Z,1.50
2022-10-18T08:44:24.612Z,2.45
2022-10-18T08:47:31.765Z,1.98
2022-10-18T08:50:03.058Z,1.67
2022-10-18T08:53:07.225Z,1.92
2022-10-18T08:55:45.818Z,1.75
2022-10-18T08:58:22.391Z,1.38
2022-10-18T09:01:13.739Z,1.73
2022-10-18T09:04:03.673Z,2.05
2022-10-18T09:06:44.059Z,1.83
2022-10-18T09:09:29.547Z,1.00
2022-10-18T09:12:11.984Z,1.52
2022-10-18T09:15:13.801Z,2.08
2022-10-18T09:17:58.785Z,1.27
2022-10-18T09:20:37.860Z,1.10
2022-10-18T09:23:20.408Z,1.20
2022-10-18T09:25:58.592Z,1.83
2022-10-18T09:28:33.355Z,1.23
2022-10-18T09:31:05.708Z,2.05
2022-10-18T09:33:58.358Z,0.90
2022-10-18T09:36:35.339Z,1.48
2022-10-18T09:39:05.566Z,1.08
2022-10-18T09:41:40.953Z,2.53
2022-10-18T09:44:27.504Z,2.10
2022-10-18T09:47:17.029Z,1.60
2022-10-18T09:49:51.514Z,1.25
2022-10-18T09:52:43.649Z,1.58
2022-10-18T09:55:19.456Z,1.30
2022-10-18T09:57:54.589Z,1.63
2022-10-18T10:00:29.523Z,2.30
2022-10-18T10:05:22.583Z,0.82
2022-10-18T10:07:49.736Z,2.10
2022-10-18T10:10:23.884Z,1.00
2022-10-18T10:13:27.809Z,1.90
2022-10-18T10:15:56.076Z,1.73
2022-10-18T10:18:26.449Z,0.75
2022-10-18T10:21:03.434Z,1.17
2022-10-18T10:23:39.222Z,1.38
2022-10-18T10:26:20.510Z,1.08
2022-10-18T10:28:49.031Z,1.70
2022-10-18T10:31:25.460Z,1.52
2022-10-18T10:34:21.468Z,1.38
2022-10-18T10:36:50.796Z,1.10
2022-10-18T10:39:19.409Z,1.50
2022-10-18T10:41:50.755Z,2.20
2022-10-18T10:44:22.703Z,2.38
2022-10-18T10:46:51.317Z,2.45
2022-10-18T10:49:39.028Z,1.63
2022-10-18T10:52:25.882Z,1.85
2022-10-18T10:54:55.746Z,1.92
2022-10-18T10:57:28.940Z,2.95
2022-10-18T10:59:59.596Z,2.05
2022-10-18T11:02:29.390Z,3.63
2022-10-18T11:04:57.455Z,2.28
2022-10-18T11:07:33.272Z,1.85
2022-10-18T11:10:12.688Z,1.67
2022-10-18T11:12:47.903Z,1.58
2022-10-18T11:15:28.942Z,3.00
2022-10-18T11:18:14.727Z,2.17
2022-10-18T11:20:45.507Z,2.03
2022-10-18T11:23:14.476Z,2.22
2022-10-18T11:25:53.016Z,2.05
2022-10-18T11:28:37.367Z,1.75
2022-10-18T11:31:41.726Z,1.90
2022-10-18T11:34:23.567Z,1.95
2022-10-18T11:37:22.860Z,1.95
2022-10-18T11:40:20.705Z,1.67
2022-10-18T11:43:12.869Z,2.30
2022-10-18T11:45:42.454Z,2.10
2022-10-18T11:48:26.985Z,1.23
2022-10-18T11:50:59.347Z,2.00
2022-10-18T11:53:51.995Z,2.35
2022-10-18T11:56:46.479Z,1.15
2022-10-18T11:59:31.243Z,1.05
2022-10-18T12:02:26.421Z,1.08
2022-10-18T12:07:58.800Z,1.00
2022-10-18T12:10:44.115Z,0.93
2022-10-18T12:13:49.939Z,1.77
2022-10-18T12:16:33.519Z,1.00
2022-10-18T12:19:15.176Z,1.05
2022-10-18T12:21:43.136Z,1.77
2022-10-18T12:24:18.541Z,1.17
2022-10-18T12:26:48.589Z,1.05
2022-10-18T12:29:39.874Z,1.27
2022-10-18T12:32:13.408Z,0.82
2022-10-18T12:34:44.892Z,0.70
2022-10-18T12:37:40.961Z,1.42
2022-10-18T12:40:38.790Z,0.93
2022-10-18T12:43:34.061Z,1.05
2022-10-18T12:46:02.435Z,0.80
2022-10-18T12:48:45.682Z,0.88
2022-10-18T12:51:18.359Z,1.10
2022-10-18T12:53:52.757Z,1.25
2022-10-18T12:56:28.367Z,0.80
2022-10-18T12:59:13.700Z,1.10
2022-10-18T13:04:28.558Z,0.70
2022-10-18T13:06:58.293Z,2.28
2022-10-18T13:09:35.343Z,0.63
2022-10-18T13:12:11.003Z,0.90
2022-10-18T13:15:06.000Z,0.68
2022-10-18T13:17:49.561Z,2.25
2022-10-18T13:20:31.307Z,1.38
2022-10-18T13:23:06.453Z,0.63
2022-10-18T13:25:59.060Z,0.60
2022-10-18T13:28:47.373Z,0.50
2022-10-18T13:31:28.508Z,0.90
2022-10-18T13:33:55.356Z,0.47
2022-10-18T13:36:25.337Z,0.60
2022-10-18T13:38:57.719Z,0.77
2022-10-18T13:41:34.515Z,0.90
2022-10-18T13:44:02.106Z,2.03
2022-10-18T13:46:34.842Z,0.90
2022-10-18T13:49:38.367Z,1.17
2022-10-18T13:52:30.592Z,0.60
2022-10-18T13:55:29.420Z,0.82
2022-10-18T13:58:23.932Z,0.52
2022-10-18T14:01:27.874Z,0.70
2022-10-18T14:04:04.700Z,0.40
2022-10-18T14:06:38.689Z,1.20
2022-10-18T14:09:40.254Z,1.05
2022-10-18T14:12:35.737Z,1.23
2022-10-18T14:15:02.536Z,0.90
2022-10-18T14:17:46.884Z,0.63
2022-10-18T14:20:29.971Z,1.13
2022-10-18T14:23:10.840Z,1.70
2022-10-18T14:25:38.515Z,1.23
2022-10-18T14:28:27.323Z,1.33
2022-10-18T14:31:09.289Z,0.60
2022-10-18T14:33:38.318Z,0.82
2022-10-18T14:36:16.488Z,1.45
2022-10-18T14:38:51.100Z,0.60
2022-10-18T14:41:20.585Z,0.90
2022-10-18T14:43:48.189Z,1.00
2022-10-18T14:46:19.719Z,0.90
2022-10-18T14:48:58.548Z,1.63
2022-10-18T14:51:26.776Z,1.15
2022-10-18T14:53:53.629Z,1.05
2022-10-18T14:56:30.552Z,1.17
2022-10-18T14:59:01.876Z,1.00
2022-10-18T15:01:31.542Z,0.60
2022-10-18T15:04:01.078Z,0.90
2022-10-18T15:06:28.067Z,1.92
2022-10-18T15:08:57.852Z,1.00
2022-10-18T15:11:26.397Z,1.23
2022-10-18T15:14:06.796Z,1.23
2022-10-18T15:16:33.921Z,1.08
2022-10-18T15:19:03.076Z,0.75
2022-10-18T15:21:29.992Z,1.55
2022-10-18T15:24:28.343Z,1.05
2022-10-18T15:27:02.206Z,1.20
2022-10-18T15:29:33.384Z,0.88
2022-10-18T15:32:07.813Z,1.00
2022-10-18T15:34:35.301Z,0.70
2022-10-18T15:37:16.640Z,1.15
2022-10-18T15:39:43.336Z,0.88
2022-10-18T15:42:38.399Z,0.70
2022-10-18T15:45:22.205Z,2.30
2022-10-18T15:48:13.096Z,0.95
2022-10-18T15:51:04.769Z,1.48
2022-10-18T15:53:43.731Z,0.80
2022-10-18T15:56:26.771Z,1.70
2022-10-18T15:58:55.328Z,0.95
2022-10-18T16:01:29.893Z,1.95
2022-10-18T16:03:56.508Z,1.38
2022-10-18T16:06:23.007Z,1.30
2022-10-18T16:08:51.822Z,1.20
2022-10-18T16:11:24.685Z,1.27
2022-10-18T16:13:55.178Z,1.17
2022-10-18T16:16:27.401Z,1.20
2022-10-18T16:18:54.775Z,1.10
2022-10-18T16:21:26.353Z,1.42
2022-10-18T16:23:53.266Z,1.10
2022-10-18T16:26:20.339Z,1.38
2022-10-18T16:28:48.132Z,0.90
2022-10-18T16:31:18.293Z,1.00
2022-10-18T16:33:46.109Z,1.73
2022-10-18T16:36:24.864Z,1.10
2022-10-18T16:38:51.834Z,1.10
2022-10-18T16:41:18.458Z,0.65
2022-10-18T16:43:47.412Z,0.80
2022-10-18T16:46:19.290Z,1.13
2022-10-18T16:48:46.957Z,2.22
2022-10-18T16:51:14.873Z,0.80
2022-10-18T16:53:41.881Z,1.65
2022-10-18T16:56:23.246Z,0.85
2022-10-18T16:58:50.101Z,1.02
2022-10-18T17:01:20.037Z,1.33
2022-10-18T17:03:47.702Z,0.98
2022-10-18T17:06:23.278Z,0.77
2022-10-18T17:08:50.863Z,1.00
2022-10-18T17:11:18.511Z,0.90
2022-10-18T17:13:45.051Z,1.00
2022-10-18T17:16:23.375Z,2.00
2022-10-18T17:18:50.371Z,0.82
2022-10-18T17:21:16.996Z,0.98
2022-10-18T17:23:43.490Z,1.42
2022-10-18T17:26:28.452Z,0.80
2022-10-18T17:29:01.482Z,1.95
2022-10-18T17:31:29.850Z,1.27
2022-10-18T17:33:58.438Z,1.52
2022-10-18T17:36:25.252Z,3.63
2022-10-18T17:38:53.504Z,1.00
2022-10-18T17:41:20.327Z,1.05
2022-10-18T17:43:48.328Z,0.70
2022-10-18T17:46:15.988Z,1.17
2022-10-18T17:48:42.835Z,1.08
2022-10-18T17:51:11.900Z,0.95
2022-10-18T17:53:38.534Z,1.27
2022-10-18T17:56:06.176Z,1.35
2022-10-18T17:58:32.674Z,0.80
2022-10-18T18:01:12.982Z,1.25
2022-10-18T18:03:39.884Z,0.80
2022-10-18T18:06:23.895Z,0.82
2022-10-18T18:08:50.613Z,0.93
2022-10-18T18:11:17.876Z,1.17
2022-10-18T18:13:44.561Z,1.45
2022-10-18T18:16:15.746Z,1.00
2022-10-18T18:18:43.056Z,1.08
2022-10-18T18:21:09.581Z,0.95
2022-10-18T18:23:36.126Z,0.70
2022-10-18T18:26:02.721Z,0.82
2022-10-18T18:28:29.243Z,1.48
2022-10-18T18:30:55.703Z,1.02
2022-10-18T18:33:22.261Z,0.88
2022-10-18T18:35:57.030Z,1.08
2022-10-18T18:38:24.171Z,0.98
2022-10-18T18:40:50.664Z,1.15
2022-10-18T18:43:24.325Z,0.80
2022-10-18T18:45:52.154Z,1.20
2022-10-18T18:48:19.922Z,2.38
2022-10-18T18:50:51.250Z,2.67
2022-10-18T18:53:18.560Z,3.80
2022-10-18T18:55:45.487Z,3.70
2022-10-18T18:58:12.188Z,3.60
2022-10-18T19:00:43.367Z,3.88
2022-10-18T19:03:11.947Z,3.10
2022-10-18T19:05:38.452Z,4.07
2022-10-18T19:08:05.683Z,3.50
2022-10-18T19:10:32.687Z,4.35
2022-10-18T19:12:59.412Z,3.88
2022-10-18T19:15:25.904Z,3.90
2022-10-18T19:17:52.376Z,4.63
2022-10-18T19:20:18.945Z,4.35
2022-10-18T19:22:45.857Z,3.95
2022-10-18T19:25:12.366Z,4.10
2022-10-18T19:27:38.879Z,3.38
2022-10-18T19:30:09.199Z,4.18
2022-10-18T19:32:35.669Z,4.30
2022-10-18T19:35:02.353Z,3.72
2022-10-18T19:37:28.883Z,3.80
2022-10-18T19:39:55.392Z,4.05
2022-10-18T19:42:26.128Z,4.00
2022-10-18T19:44:53.967Z,3.38
2022-10-18T19:47:20.765Z,5.35
2022-10-18T19:49:48.003Z,3.80
2022-10-18T19:52:14.731Z,3.53
2022-10-18T19:54:41.454Z,2.85
2022-10-18T19:57:08.191Z,2.65
2022-10-18T19:59:36.027Z,3.05
2022-10-18T20:02:04.657Z,3.53
2022-10-18T20:04:34.453Z,3.20
2022-10-18T20:07:02.738Z,3.58
2022-10-18T20:09:29.743Z,3.20
2022-10-18T20:11:56.448Z,2.65
2022-10-18T20:14:23.079Z,3.10
2022-10-18T20:16:49.583Z,2.83
2022-10-18T20:19:16.080Z,3.25
2022-10-18T20:21:42.619Z,3.30
2022-10-18T20:24:11.070Z,3.00
2022-10-18T20:26:37.635Z,3.60
2022-10-18T20:29:04.916Z,3.90
2022-10-18T20:31:35.492Z,3.70
2022-10-18T20:34:05.340Z,3.85
2022-10-18T20:36:32.649Z,2.85
2022-10-18T20:38:59.943Z,2.28
2022-10-18T20:41:29.797Z,2.33
2022-10-18T20:43:57.762Z,2.60
2022-10-18T20:46:25.497Z,2.22
2022-10-18T20:48:52.894Z,2.65
2022-10-18T20:51:19.927Z,2.15
2022-10-18T20:53:46.442Z,2.53
2022-10-18T20:56:20.463Z,2.78
2022-10-18T20:58:49.192Z,2.30
2022-10-18T21:01:34.933Z,2.30
2022-10-18T21:04:04.656Z,1.50
2022-10-18T21:06:34.053Z,2.80
2022-10-18T21:09:06.198Z,2.05
2022-10-18T21:11:37.304Z,1.80
2022-10-18T21:14:05.097Z,1.88
2022-10-18T21:16:33.519Z,2.70
2022-10-18T21:19:09.963Z,2.17
2022-10-18T21:21:37.004Z,2.60
2022-10-18T21:24:07.030Z,2.65
2022-10-18T21:26:35.753Z,4.88
2022-10-18T21:29:04.043Z,3.03
2022-10-18T21:31:35.843Z,3.85
2022-10-18T21:34:05.077Z,3.88
2022-10-18T21:36:36.402Z,3.45
2022-10-18T21:39:05.455Z,2.55
2022-10-18T21:41:33.045Z,2.65
2022-10-18T21:44:00.268Z,3.40
2022-10-18T21:46:27.074Z,2.95
2022-10-18T21:48:55.080Z,3.33
2022-10-18T21:51:27.058Z,3.03
2022-10-18T21:53:56.325Z,2.90
2022-10-18T21:56:28.774Z,2.75
2022-10-18T21:58:55.878Z,2.70
2022-10-18T22:01:28.072Z,2.58
2022-10-18T22:03:56.785Z,3.08
2022-10-18T22:06:24.380Z,3.08
2022-10-18T22:08:53.296Z,2.08
2022-10-18T22:11:28.953Z,3.00
2022-10-18T22:13:55.879Z,3.05
2022-10-18T22:16:22.954Z,3.05
2022-10-18T22:18:50.611Z,2.97
2022-10-18T22:21:19.378Z,3.10
2022-10-18T22:23:51.395Z,2.85
2022-10-18T22:26:21.671Z,3.50
2022-10-18T22:28:54.765Z,3.35
2022-10-18T22:31:24.719Z,3.03
2022-10-18T22:33:55.993Z,2.85
2022-10-18T22:36:23.204Z,3.20
2022-10-18T22:38:49.763Z,3.05
2022-10-18T22:41:16.451Z,3.13
2022-10-18T22:43:43.076Z,2.63
2022-10-18T22:46:12.270Z,3.03
2022-10-18T22:48:39.089Z,2.55
2022-10-18T22:51:06.287Z,2.88
2022-10-18T22:53:34.068Z,2.67
2022-10-18T22:56:00.534Z,3.03
2022-10-18T22:58:27.124Z,3.15
2022-10-18T23:01:08.398Z,2.28
2022-10-18T23:03:35.067Z,2.88
2022-10-18T23:06:02.170Z,2.13
2022-10-18T23:08:28.938Z,2.47
2022-10-18T23:10:58.170Z,2.85
2022-10-18T23:13:26.165Z,2.13
2022-10-18T23:15:53.485Z,2.80
2022-10-18T23:18:20.526Z,2.50
2022-10-18T23:20:47.025Z,2.33
2022-10-18T23:23:13.922Z,2.38
2022-10-18T23:25:40.540Z,2.60
2022-10-18T23:28:07.411Z,3.00
2022-10-18T23:30:33.994Z,3.13
2022-10-18T23:33:00.781Z,2.08
2022-10-18T23:35:27.308Z,2.75
2022-10-18T23:37:53.967Z,2.05
2022-10-18T23:40:20.501Z,2.70
2022-10-18T23:42:46.993Z,2.95
2022-10-18T23:45:13.485Z,2.55
2022-10-18T23:47:39.969Z,2.35
2022-10-18T23:50:06.963Z,3.17
2022-10-18T23:52:33.466Z,3.28
2022-10-18T23:54:59.908Z,2.83
2022-10-18T23:57:26.424Z,2.47
2022-10-18T23:59:52.882Z,2.45
